createdAt,value
2018-05-29T00:07:57.139Z,99.99
2018-05-29T00:18:56.456Z,99.99
2018-05-29T00:29:58.359Z,98.79
2018-05-29T00:40:59.112Z,99.99
2018-05-29T00:51:59.397Z,99.99
2018-05-29T01:02:54.714Z,99.99
2018-05-29T01:13:58.380Z,99.99
2018-05-29T01:24:54.180Z,99.99
2018-05-29T01:35:55.408Z,99.99
2018-05-29T01:46:59.420Z,99.99
2018-05-29T01:58:03.070Z,99.99
2018-05-29T02:09:04.028Z,99.99
2018-05-29T02:20:05.689Z,99.99
2018-05-29T02:31:09.109Z,99.99
2018-05-29T02:42:08.036Z,99.99
2018-05-29T02:53:08.362Z,99.99
2018-05-29T03:04:11.711Z,99.99
2018-05-29T03:15:14.413Z,99.99
2018-05-29T03:26:14.875Z,99.99
2018-05-29T03:37:15.526Z,99.99
2018-05-29T03:48:16.010Z,99.99
2018-05-29T03:59:18.967Z,99.99
2018-05-29T04:10:17.632Z,99.99
2018-05-29T04:21:18.796Z,99.99
2018-05-29T04:32:19.247Z,99.99
2018-05-29T04:43:21.632Z,99.99
2018-05-29T04:54:30.914Z,99.99
2018-05-29T05:05:26.111Z,99.99
2018-05-29T05:16:20.812Z,99.99
2018-05-29T05:27:15.477Z,99.99
2018-05-29T05:38:19.460Z,99.99
2018-05-29T05:49:19.638Z,99.99
2018-05-29T06:00:21.872Z,98.75
2018-05-29T06:11:21.048Z,96.01
2018-05-29T06:22:21.962Z,95.87
2018-05-29T06:33:20.220Z,92.89
2018-05-29T06:44:13.215Z,94.53
2018-05-29T06:55:12.629Z,93.88
2018-05-29T07:06:10.103Z,94.64
2018-05-29T07:17:09.972Z,93.45
2018-05-29T07:28:08.525Z,91.58
2018-05-29T07:39:08.639Z,92.26
2018-05-29T07:50:05.286Z,91.38
2018-05-29T08:01:01.280Z,91.53
2018-05-29T08:12:01.440Z,90.89
2018-05-29T08:23:00.806Z,89.32
2018-05-29T08:34:00.462Z,89.22
2018-05-29T08:45:01.608Z,89.28
2018-05-29T08:56:05.421Z,86.32
2018-05-29T09:07:06.127Z,86.27
2018-05-29T09:18:07.916Z,79.99
2018-05-29T09:29:07.080Z,86.04
2018-05-29T09:40:03.803Z,86.33
2018-05-29T09:51:05.135Z,79.91
2018-05-29T10:02:06.765Z,78.49
2018-05-29T10:13:03.700Z,77.16
2018-05-29T10:24:03.469Z,75.18
2018-05-29T10:35:00.153Z,74.74
2018-05-29T10:46:01.022Z,77.74
2018-05-29T10:56:58.616Z,73.36
2018-05-29T11:07:54.452Z,72.24
2018-05-29T11:18:54.872Z,68.82
2018-05-29T11:29:53.395Z,71.86
2018-05-29T11:40:54.547Z,75.48
2018-05-29T11:51:54.715Z,78.62
2018-05-29T12:02:53.388Z,74.30
2018-05-29T12:13:55.751Z,82.20
2018-05-29T12:24:57.896Z,85.75
2018-05-29T12:36:01.202Z,82.28
2018-05-29T12:46:54.150Z,85.10
2018-05-29T12:57:49.470Z,89.75
2018-05-29T13:08:51.099Z,93.76
2018-05-29T13:19:53.759Z,95.70
2018-05-29T13:30:50.969Z,95.10
2018-05-29T13:41:48.059Z,95.84
2018-05-29T13:52:46.766Z,95.95
2018-05-29T14:03:43.779Z,95.79
2018-05-29T14:14:45.431Z,97.28
2018-05-29T14:25:43.285Z,94.65
2018-05-29T14:36:46.021Z,93.79
2018-05-29T14:47:47.349Z,95.14
2018-05-29T14:58:45.684Z,96.47
2018-05-29T15:09:46.749Z,97.37
2018-05-29T15:20:56.996Z,95.74
2018-05-29T15:31:55.810Z,95.78
2018-05-29T15:42:52.726Z,97.72
2018-05-29T15:53:54.359Z,99.99
2018-05-29T16:04:51.501Z,99.99
2018-05-29T16:15:53.073Z,99.99
2018-05-29T16:26:55.954Z,99.99
2018-05-29T16:37:59.930Z,99.99
2018-05-29T16:49:03.524Z,99.99
2018-05-29T16:59:58.080Z,99.99
2018-05-29T17:10:57.597Z,99.99
2018-05-29T17:21:52.303Z,99.99
2018-05-29T17:32:54.326Z,99.99
2018-05-29T17:43:52.680Z,99.99
2018-05-29T17:54:53.478Z,99.99
2018-05-29T18:05:51.115Z,99.99
2018-05-29T18:16:52.737Z,99.99
2018-05-29T18:27:49.479Z,99.99
2018-05-29T18:38:48.943Z,99.99
2018-05-29T18:49:42.870Z,99.99
2018-05-29T19:00:36.569Z,99.99
2018-05-29T19:11:35.244Z,99.99
2018-05-29T19:22:33.653Z,99.99
2018-05-29T19:33:30.379Z,99.99
2018-05-29T19:44:25.993Z,99.99
2018-05-29T19:55:24.501Z,99.99
2018-05-29T20:06:24.022Z,99.99
2018-05-29T20:17:23.283Z,99.99
2018-05-29T20:28:17.739Z,99.99
2018-05-29T20:39:19.721Z,99.99
2018-05-29T20:50:19.531Z,99.99
2018-05-29T21:01:18.360Z,99.99
2018-05-29T21:12:16.446Z,99.99
2018-05-29T21:23:13.472Z,99.99
2018-05-29T21:34:14.226Z,99.99
2018-05-29T21:45:14.625Z,99.99
2018-05-29T21:56:13.218Z,99.99
2018-05-29T22:07:16.519Z,99.99
2018-05-29T22:18:17.146Z,99.99
2018-05-29T22:29:20.714Z,99.99
2018-05-29T22:40:19.686Z,99.99
2018-05-29T22:51:17.413Z,99.99
2018-05-29T23:02:21.593Z,99.99
2018-05-29T23:13:18.981Z,99.99
2018-05-29T23:24:17.930Z,99.99
2018-05-29T23:35:18.848Z,99.99
2018-05-29T23:46:18.476Z,99.99
2018-05-29T23:57:21.916Z,99.99
